sensor_id;sensor_type;location;lat;lon;timestamp;temperature;humidity
43227;DHT22;28839;52.404;9.808;2023-03-24T00:00:29;11.60;99.90
43227;DHT22;28839;52.404;9.808;2023-03-24T00:07:24;11.70;99.90
43227;DHT22;28839;52.404;9.808;2023-03-24T00:14:22;11.70;99.90
43227;DHT22;28839;52.404;9.808;2023-03-24T00:21:16;11.70;99.90
43227;DHT22;28839;52.404;9.808;2023-03-24T00:28:11;11.60;99.90
43227;DHT22;28839;52.404;9.808;2023-03-24T00:35:06;11.80;99.90
43227;DHT22;28839;52.404;9.808;2023-03-24T00:42:01;11.70;99.90
43227;DHT22;28839;52.404;9.808;2023-03-24T00:48:58;11.50;99.90
43227;DHT22;28839;52.404;9.808;2023-03-24T00:55:55;11.40;99.90
43227;DHT22;28839;52.404;9.808;2023-03-24T01:02:50;11.20;99.90
43227;DHT22;28839;52.404;9.808;2023-03-24T01:09:46;11.20;99.90
43227;DHT22;28839;52.404;9.808;2023-03-24T01:16:48;11.40;99.90
43227;DHT22;28839;52.404;9.808;2023-03-24T01:23:44;11.40;99.90
43227;DHT22;28839;52.404;9.808;2023-03-24T01:30:40;11.50;99.90
43227;DHT22;28839;52.404;9.808;2023-03-24T01:37:34;11.50;99.90
43227;DHT22;28839;52.404;9.808;2023-03-24T01:44:31;11.70;99.90
43227;DHT22;28839;52.404;9.808;2023-03-24T01:51:28;11.80;99.90
43227;DHT22;28839;52.404;9.808;2023-03-24T01:58:28;11.80;99.90
43227;DHT22;28839;52.404;9.808;2023-03-24T02:05:27;11.70;99.90
43227;DHT22;28839;52.404;9.808;2023-03-24T02:12:23;11.70;99.90
43227;DHT22;28839;52.404;9.808;2023-03-24T02:19:40;11.80;99.90
43227;DHT22;28839;52.404;9.808;2023-03-24T02:26:47;11.70;99.90
43227;DHT22;28839;52.404;9.808;2023-03-24T02:41:33;11.80;99.90
43227;DHT22;28839;52.404;9.808;2023-03-24T02:48:34;12.00;99.90
43227;DHT22;28839;52.404;9.808;2023-03-24T02:55:33;12.00;99.90
43227;DHT22;28839;52.404;9.808;2023-03-24T03:02:33;12.00;99.90
43227;DHT22;28839;52.404;9.808;2023-03-24T03:09:29;12.10;99.90
43227;DHT22;28839;52.404;9.808;2023-03-24T03:16:27;12.00;99.90
43227;DHT22;28839;52.404;9.808;2023-03-24T03:23:31;11.90;99.90
43227;DHT22;28839;52.404;9.808;2023-03-24T03:30:30;11.90;99.90
43227;DHT22;28839;52.404;9.808;2023-03-24T03:37:31;11.90;99.90
43227;DHT22;28839;52.404;9.808;2023-03-24T03:44:28;11.90;99.90
43227;DHT22;28839;52.404;9.808;2023-03-24T03:51:23;11.90;99.90
43227;DHT22;28839;52.404;9.808;2023-03-24T03:58:18;12.00;99.90
43227;DHT22;28839;52.404;9.808;2023-03-24T04:05:31;12.00;99.90
43227;DHT22;28839;52.404;9.808;2023-03-24T04:12:36;12.00;99.90
43227;DHT22;28839;52.404;9.808;2023-03-24T04:19:44;12.00;99.90
43227;DHT22;28839;52.404;9.808;2023-03-24T04:26:47;12.00;99.90
43227;DHT22;28839;52.404;9.808;2023-03-24T04:33:48;11.80;99.90
43227;DHT22;28839;52.404;9.808;2023-03-24T04:40:44;11.70;99.90
43227;DHT22;28839;52.404;9.808;2023-03-24T04:47:45;11.70;99.90
43227;DHT22;28839;52.404;9.808;2023-03-24T04:54:40;11.60;99.90
43227;DHT22;28839;52.404;9.808;2023-03-24T05:01:34;11.60;99.90
43227;DHT22;28839;52.404;9.808;2023-03-24T05:08:30;11.70;99.90
43227;DHT22;28839;52.404;9.808;2023-03-24T05:15:24;11.70;99.90
43227;DHT22;28839;52.404;9.808;2023-03-24T05:22:18;11.90;99.90
43227;DHT22;28839;52.404;9.808;2023-03-24T05:29:14;12.00;99.90
43227;DHT22;28839;52.404;9.808;2023-03-24T05:36:08;12.10;99.90
43227;DHT22;28839;52.404;9.808;2023-03-24T05:43:02;12.10;99.90
43227;DHT22;28839;52.404;9.808;2023-03-24T05:49:58;12.20;99.90
43227;DHT22;28839;52.404;9.808;2023-03-24T05:56:52;12.30;99.90
43227;DHT22;28839;52.404;9.808;2023-03-24T06:03:46;12.50;99.90
43227;DHT22;28839;52.404;9.808;2023-03-24T06:10:41;12.40;99.90
43227;DHT22;28839;52.404;9.808;2023-03-24T06:17:35;12.50;99.90
43227;DHT22;28839;52.404;9.808;2023-03-24T06:24:30;12.80;99.90
43227;DHT22;28839;52.404;9.808;2023-03-24T06:31:25;12.70;99.90
43227;DHT22;28839;52.404;9.808;2023-03-24T06:38:21;12.50;99.90
43227;DHT22;28839;52.404;9.808;2023-03-24T06:45:14;12.30;99.90
43227;DHT22;28839;52.404;9.808;2023-03-24T06:52:10;12.10;99.90
43227;DHT22;28839;52.404;9.808;2023-03-24T06:59:03;12.10;99.90
43227;DHT22;28839;52.404;9.808;2023-03-24T07:05:58;12.00;99.90
43227;DHT22;28839;52.404;9.808;2023-03-24T07:12:53;12.00;99.90
43227;DHT22;28839;52.404;9.808;2023-03-24T07:19:47;11.70;99.90
43227;DHT22;28839;52.404;9.808;2023-03-24T07:26:41;11.80;99.90
43227;DHT22;28839;52.404;9.808;2023-03-24T07:33:36;12.00;99.90
43227;DHT22;28839;52.404;9.808;2023-03-24T07:40:30;12.20;99.90
43227;DHT22;28839;52.404;9.808;2023-03-24T07:54:23;12.90;99.90
43227;DHT22;28839;52.404;9.808;2023-03-24T08:01:18;13.00;99.90
43227;DHT22;28839;52.404;9.808;2023-03-24T08:08:11;12.90;99.90
43227;DHT22;28839;52.404;9.808;2023-03-24T08:15:08;12.80;99.90
43227;DHT22;28839;52.404;9.808;2023-03-24T08:22:02;12.80;99.90
43227;DHT22;28839;52.404;9.808;2023-03-24T08:28:56;12.70;99.90
43227;DHT22;28839;52.404;9.808;2023-03-24T08:35:51;13.00;99.90
43227;DHT22;28839;52.404;9.808;2023-03-24T08:42:50;13.40;99.90
43227;DHT22;28839;52.404;9.808;2023-03-24T08:49:44;13.70;99.90
43227;DHT22;28839;52.404;9.808;2023-03-24T08:56:39;13.40;99.90
43227;DHT22;28839;52.404;9.808;2023-03-24T09:03:33;13.30;99.90
43227;DHT22;28839;52.404;9.808;2023-03-24T09:10:27;13.10;99.90
43227;DHT22;28839;52.404;9.808;2023-03-24T09:17:22;13.50;99.90
43227;DHT22;28839;52.404;9.808;2023-03-24T09:24:16;13.30;99.90
43227;DHT22;28839;52.404;9.808;2023-03-24T09:31:10;13.00;99.90
43227;DHT22;28839;52.404;9.808;2023-03-24T09:38:06;12.60;99.90
43227;DHT22;28839;52.404;9.808;2023-03-24T09:45:06;13.00;99.90
43227;DHT22;28839;52.404;9.808;2023-03-24T09:52:03;13.40;99.90
43227;DHT22;28839;52.404;9.808;2023-03-24T09:59:03;13.20;99.90
43227;DHT22;28839;52.404;9.808;2023-03-24T10:06:00;13.80;99.90
43227;DHT22;28839;52.404;9.808;2023-03-24T10:13:02;13.50;99.90
43227;DHT22;28839;52.404;9.808;2023-03-24T10:20:03;13.70;99.90
43227;DHT22;28839;52.404;9.808;2023-03-24T10:27:03;13.20;99.90
43227;DHT22;28839;52.404;9.808;2023-03-24T10:33:59;13.20;99.90
43227;DHT22;28839;52.404;9.808;2023-03-24T10:40:54;13.60;99.90
43227;DHT22;28839;52.404;9.808;2023-03-24T10:47:50;13.60;99.90
43227;DHT22;28839;52.404;9.808;2023-03-24T10:54:53;13.60;99.90
43227;DHT22;28839;52.404;9.808;2023-03-24T11:01:49;13.70;99.90
43227;DHT22;28839;52.404;9.808;2023-03-24T11:08:43;13.90;99.90
43227;DHT22;28839;52.404;9.808;2023-03-24T11:15:38;13.80;99.90
43227;DHT22;28839;52.404;9.808;2023-03-24T11:23:02;14.00;99.90
43227;DHT22;28839;52.404;9.808;2023-03-24T11:29:57;14.30;99.90
43227;DHT22;28839;52.404;9.808;2023-03-24T11:36:52;14.60;99.90
43227;DHT22;28839;52.404;9.808;2023-03-24T11:43:48;14.30;99.90
43227;DHT22;28839;52.404;9.808;2023-03-24T11:50:43;14.40;99.90
43227;DHT22;28839;52.404;9.808;2023-03-24T11:57:45;14.30;99.90
43227;DHT22;28839;52.404;9.808;2023-03-24T12:05:13;14.20;99.90
43227;DHT22;28839;52.404;9.808;2023-03-24T12:12:20;14.70;99.90
43227;DHT22;28839;52.404;9.808;2023-03-24T12:26:51;14.10;99.90
43227;DHT22;28839;52.404;9.808;2023-03-24T12:33:53;14.20;99.90
43227;DHT22;28839;52.404;9.808;2023-03-24T12:41:28;14.30;99.90
43227;DHT22;28839;52.404;9.808;2023-03-24T12:55:56;14.40;99.90
43227;DHT22;28839;52.404;9.808;2023-03-24T13:02:54;14.30;99.90
43227;DHT22;28839;52.404;9.808;2023-03-24T13:09:55;14.40;99.90
43227;DHT22;28839;52.404;9.808;2023-03-24T13:16:53;14.60;99.90
43227;DHT22;28839;52.404;9.808;2023-03-24T13:23:50;14.40;99.90
43227;DHT22;28839;52.404;9.808;2023-03-24T13:30:48;14.20;99.90
43227;DHT22;28839;52.404;9.808;2023-03-24T13:37:46;14.30;99.90
43227;DHT22;28839;52.404;9.808;2023-03-24T13:44:42;14.40;99.90
43227;DHT22;28839;52.404;9.808;2023-03-24T13:51:42;14.40;99.90
43227;DHT22;28839;52.404;9.808;2023-03-24T14:06:00;14.40;99.90
43227;DHT22;28839;52.404;9.808;2023-03-24T14:13:01;14.10;99.90
43227;DHT22;28839;52.404;9.808;2023-03-24T14:20:11;12.90;99.90
43227;DHT22;28839;52.404;9.808;2023-03-24T14:27:29;13.00;99.90
43227;DHT22;28839;52.404;9.808;2023-03-24T14:34:26;13.20;99.90
43227;DHT22;28839;52.404;9.808;2023-03-24T14:41:27;13.40;99.90
43227;DHT22;28839;52.404;9.808;2023-03-24T14:48:49;13.60;99.90
43227;DHT22;28839;52.404;9.808;2023-03-24T14:55:48;13.70;99.90
43227;DHT22;28839;52.404;9.808;2023-03-24T15:02:44;13.60;99.90
43227;DHT22;28839;52.404;9.808;2023-03-24T15:09:47;13.40;99.90
43227;DHT22;28839;52.404;9.808;2023-03-24T15:16:50;11.50;99.90
43227;DHT22;28839;52.404;9.808;2023-03-24T15:23:46;10.80;99.90
43227;DHT22;28839;52.404;9.808;2023-03-24T15:30:40;11.60;99.90
43227;DHT22;28839;52.404;9.808;2023-03-24T15:37:37;12.10;99.90
43227;DHT22;28839;52.404;9.808;2023-03-24T15:44:36;12.40;99.90
43227;DHT22;28839;52.404;9.808;2023-03-24T15:51:48;12.30;99.90
43227;DHT22;28839;52.404;9.808;2023-03-24T15:58:52;12.60;99.90
43227;DHT22;28839;52.404;9.808;2023-03-24T16:05:48;12.30;99.90
43227;DHT22;28839;52.404;9.808;2023-03-24T16:12:42;12.30;99.90
43227;DHT22;28839;52.404;9.808;2023-03-24T16:19:37;12.10;99.90
43227;DHT22;28839;52.404;9.808;2023-03-24T16:26:32;11.80;99.90
43227;DHT22;28839;52.404;9.808;2023-03-24T16:33:26;11.50;99.90
43227;DHT22;28839;52.404;9.808;2023-03-24T16:40:30;11.20;99.90
43227;DHT22;28839;52.404;9.808;2023-03-24T16:47:25;10.40;99.90
43227;DHT22;28839;52.404;9.808;2023-03-24T16:54:19;9.60;99.90
43227;DHT22;28839;52.404;9.808;2023-03-24T17:01:18;9.40;99.90
43227;DHT22;28839;52.404;9.808;2023-03-24T17:08:18;9.50;99.90
43227;DHT22;28839;52.404;9.808;2023-03-24T17:15:20;9.30;99.90
43227;DHT22;28839;52.404;9.808;2023-03-24T17:22:16;9.40;99.90
43227;DHT22;28839;52.404;9.808;2023-03-24T17:29:11;9.20;99.90
43227;DHT22;28839;52.404;9.808;2023-03-24T17:36:06;9.10;99.90
43227;DHT22;28839;52.404;9.808;2023-03-24T17:43:01;9.10;99.90
43227;DHT22;28839;52.404;9.808;2023-03-24T17:49:56;8.90;99.90
43227;DHT22;28839;52.404;9.808;2023-03-24T17:56:50;8.90;99.90
43227;DHT22;28839;52.404;9.808;2023-03-24T18:03:45;8.90;99.90
43227;DHT22;28839;52.404;9.808;2023-03-24T18:10:41;8.80;99.90
43227;DHT22;28839;52.404;9.808;2023-03-24T18:17:34;8.50;99.90
43227;DHT22;28839;52.404;9.808;2023-03-24T18:24:30;8.40;99.90
43227;DHT22;28839;52.404;9.808;2023-03-24T18:31:24;8.40;99.90
43227;DHT22;28839;52.404;9.808;2023-03-24T18:38:18;8.50;99.90
43227;DHT22;28839;52.404;9.808;2023-03-24T18:45:15;8.50;99.90
43227;DHT22;28839;52.404;9.808;2023-03-24T18:52:10;8.30;99.90
43227;DHT22;28839;52.404;9.808;2023-03-24T18:59:06;8.30;99.90
43227;DHT22;28839;52.404;9.808;2023-03-24T19:06:02;8.40;99.90
43227;DHT22;28839;52.404;9.808;2023-03-24T19:12:58;8.40;99.90
43227;DHT22;28839;52.404;9.808;2023-03-24T19:19:52;8.40;99.90
43227;DHT22;28839;52.404;9.808;2023-03-24T19:26:51;8.40;99.90
43227;DHT22;28839;52.404;9.808;2023-03-24T19:33:45;8.40;99.90
43227;DHT22;28839;52.404;9.808;2023-03-24T19:40:39;8.50;99.90
43227;DHT22;28839;52.404;9.808;2023-03-24T19:47:35;8.60;99.90
43227;DHT22;28839;52.404;9.808;2023-03-24T19:54:29;8.60;99.90
43227;DHT22;28839;52.404;9.808;2023-03-24T20:01:23;8.60;99.90
43227;DHT22;28839;52.404;9.808;2023-03-24T20:08:19;8.60;99.90
43227;DHT22;28839;52.404;9.808;2023-03-24T20:15:13;8.70;99.90
43227;DHT22;28839;52.404;9.808;2023-03-24T20:22:07;8.80;99.90
43227;DHT22;28839;52.404;9.808;2023-03-24T20:29:02;8.80;99.90
43227;DHT22;28839;52.404;9.808;2023-03-24T20:35:57;8.80;99.90
43227;DHT22;28839;52.404;9.808;2023-03-24T20:42:57;8.70;99.90
43227;DHT22;28839;52.404;9.808;2023-03-24T20:49:57;8.70;99.90
43227;DHT22;28839;52.404;9.808;2023-03-24T20:56:51;8.80;99.90
43227;DHT22;28839;52.404;9.808;2023-03-24T21:03:45;8.80;99.90
43227;DHT22;28839;52.404;9.808;2023-03-24T21:10:41;8.80;99.90
43227;DHT22;28839;52.404;9.808;2023-03-24T21:17:34;8.80;99.90
43227;DHT22;28839;52.404;9.808;2023-03-24T21:24:28;8.70;99.90
43227;DHT22;28839;52.404;9.808;2023-03-24T21:31:25;8.80;99.90
43227;DHT22;28839;52.404;9.808;2023-03-24T21:38:20;8.90;99.90
43227;DHT22;28839;52.404;9.808;2023-03-24T21:45:15;9.10;99.90
43227;DHT22;28839;52.404;9.808;2023-03-24T21:52:10;9.10;99.90
43227;DHT22;28839;52.404;9.808;2023-03-24T21:59:05;9.10;99.90
43227;DHT22;28839;52.404;9.808;2023-03-24T22:05:59;9.10;99.90
43227;DHT22;28839;52.404;9.808;2023-03-24T22:12:55;9.00;99.90
43227;DHT22;28839;52.404;9.808;2023-03-24T22:19:49;9.00;99.90
43227;DHT22;28839;52.404;9.808;2023-03-24T22:26:43;9.00;99.90
43227;DHT22;28839;52.404;9.808;2023-03-24T22:33:39;9.10;99.90
43227;DHT22;28839;52.404;9.808;2023-03-24T22:40:33;9.00;99.90
43227;DHT22;28839;52.404;9.808;2023-03-24T22:47:26;9.00;99.90
43227;DHT22;28839;52.404;9.808;2023-03-24T22:54:22;9.10;99.90
43227;DHT22;28839;52.404;9.808;2023-03-24T23:01:16;9.40;99.90
43227;DHT22;28839;52.404;9.808;2023-03-24T23:08:10;9.40;99.90
43227;DHT22;28839;52.404;9.808;2023-03-24T23:15:08;9.50;99.90
43227;DHT22;28839;52.404;9.808;2023-03-24T23:22:02;9.60;99.90
43227;DHT22;28839;52.404;9.808;2023-03-24T23:28:56;9.50;99.90
43227;DHT22;28839;52.404;9.808;2023-03-24T23:35:56;9.50;99.90
43227;DHT22;28839;52.404;9.808;2023-03-24T23:42:50;9.50;99.90
43227;DHT22;28839;52.404;9.808;2023-03-24T23:49:44;9.60;99.90
43227;DHT22;28839;52.404;9.808;2023-03-24T23:56:39;9.70;99.90
